sensor_id;sensor_type;location;lat;lon;timestamp;temperature;humidity
39033;DHT22;24794;51.982;5.878;2023-08-30T00:00:24;15.90;99.90
39033;DHT22;24794;51.982;5.878;2023-08-30T00:01:24;15.90;99.90
39033;DHT22;24794;51.982;5.878;2023-08-30T00:02:25;15.90;99.90
39033;DHT22;24794;51.982;5.878;2023-08-30T00:03:25;15.90;99.90
39033;DHT22;24794;51.982;5.878;2023-08-30T00:04:26;15.90;99.90
39033;DHT22;24794;51.982;5.878;2023-08-30T00:05:26;15.90;99.90
39033;DHT22;24794;51.982;5.878;2023-08-30T00:06:28;15.90;99.90
39033;DHT22;24794;51.982;5.878;2023-08-30T00:07:28;15.90;99.90
39033;DHT22;24794;51.982;5.878;2023-08-30T00:08:29;15.90;99.90
39033;DHT22;24794;51.982;5.878;2023-08-30T00:09:30;15.90;99.90
39033;DHT22;24794;51.982;5.878;2023-08-30T00:10:31;15.90;99.90
39033;DHT22;24794;51.982;5.878;2023-08-30T00:11:31;15.90;99.90
39033;DHT22;24794;51.982;5.878;2023-08-30T00:12:33;15.90;99.90
39033;DHT22;24794;51.982;5.878;2023-08-30T00:13:33;15.90;99.90
39033;DHT22;24794;51.982;5.878;2023-08-30T00:14:34;15.90;99.90
39033;DHT22;24794;51.982;5.878;2023-08-30T00:15:35;15.90;99.90
39033;DHT22;24794;51.982;5.878;2023-08-30T00:16:36;15.80;99.90
39033;DHT22;24794;51.982;5.878;2023-08-30T00:17:38;15.80;99.90
39033;DHT22;24794;51.982;5.878;2023-08-30T00:18:39;15.80;99.90
39033;DHT22;24794;51.982;5.878;2023-08-30T00:19:40;15.80;99.90
39033;DHT22;24794;51.982;5.878;2023-08-30T00:20:40;15.80;99.90
39033;DHT22;24794;51.982;5.878;2023-08-30T00:21:41;15.80;99.90
39033;DHT22;24794;51.982;5.878;2023-08-30T00:22:43;15.80;99.90
39033;DHT22;24794;51.982;5.878;2023-08-30T00:23:43;15.80;99.90
39033;DHT22;24794;51.982;5.878;2023-08-30T00:24:44;15.80;99.90
39033;DHT22;24794;51.982;5.878;2023-08-30T00:25:45;15.80;99.90
39033;DHT22;24794;51.982;5.878;2023-08-30T00:26:46;15.80;99.90
39033;DHT22;24794;51.982;5.878;2023-08-30T00:27:46;15.80;99.90
39033;DHT22;24794;51.982;5.878;2023-08-30T00:28:47;15.80;99.90
39033;DHT22;24794;51.982;5.878;2023-08-30T00:29:47;15.80;99.90
39033;DHT22;24794;51.982;5.878;2023-08-30T00:30:53;15.80;99.90
39033;DHT22;24794;51.982;5.878;2023-08-30T00:31:54;15.80;99.90
39033;DHT22;24794;51.982;5.878;2023-08-30T00:32:55;15.80;99.90
39033;DHT22;24794;51.982;5.878;2023-08-30T00:33:55;15.80;99.90
39033;DHT22;24794;51.982;5.878;2023-08-30T00:34:56;15.80;99.90
39033;DHT22;24794;51.982;5.878;2023-08-30T00:35:58;15.80;99.90
39033;DHT22;24794;51.982;5.878;2023-08-30T00:36:58;15.80;99.90
39033;DHT22;24794;51.982;5.878;2023-08-30T00:37:59;15.80;99.90
39033;DHT22;24794;51.982;5.878;2023-08-30T00:38:59;15.80;99.90
39033;DHT22;24794;51.982;5.878;2023-08-30T00:40:00;15.80;99.90
39033;DHT22;24794;51.982;5.878;2023-08-30T00:41:00;15.80;99.90
39033;DHT22;24794;51.982;5.878;2023-08-30T00:42:01;15.80;99.90
39033;DHT22;24794;51.982;5.878;2023-08-30T00:43:07;15.80;99.90
39033;DHT22;24794;51.982;5.878;2023-08-30T00:44:08;15.80;99.90
39033;DHT22;24794;51.982;5.878;2023-08-30T00:45:08;15.80;99.90
39033;DHT22;24794;51.982;5.878;2023-08-30T00:46:09;15.80;99.90
39033;DHT22;24794;51.982;5.878;2023-08-30T00:47:10;15.70;99.90
39033;DHT22;24794;51.982;5.878;2023-08-30T00:48:11;15.70;99.90
39033;DHT22;24794;51.982;5.878;2023-08-30T00:49:12;15.70;99.90
39033;DHT22;24794;51.982;5.878;2023-08-30T00:50:13;15.70;99.90
39033;DHT22;24794;51.982;5.878;2023-08-30T00:51:14;15.70;99.90
39033;DHT22;24794;51.982;5.878;2023-08-30T00:52:15;15.70;99.90
39033;DHT22;24794;51.982;5.878;2023-08-30T00:53:16;15.70;99.90
39033;DHT22;24794;51.982;5.878;2023-08-30T00:54:17;15.70;99.90
39033;DHT22;24794;51.982;5.878;2023-08-30T00:55:17;15.70;99.90
39033;DHT22;24794;51.982;5.878;2023-08-30T00:56:18;15.70;99.90
39033;DHT22;24794;51.982;5.878;2023-08-30T00:57:19;15.70;99.90
39033;DHT22;24794;51.982;5.878;2023-08-30T00:58:20;15.70;99.90
39033;DHT22;24794;51.982;5.878;2023-08-30T00:59:22;15.70;99.90
39033;DHT22;24794;51.982;5.878;2023-08-30T01:00:23;15.70;99.90
39033;DHT22;24794;51.982;5.878;2023-08-30T01:01:23;15.60;99.90
39033;DHT22;24794;51.982;5.878;2023-08-30T01:02:24;15.60;99.90
39033;DHT22;24794;51.982;5.878;2023-08-30T01:03:24;15.60;99.90
39033;DHT22;24794;51.982;5.878;2023-08-30T01:04:25;15.60;99.90
39033;DHT22;24794;51.982;5.878;2023-08-30T01:05:25;15.60;99.90
39033;DHT22;24794;51.982;5.878;2023-08-30T01:06:26;15.60;99.90
39033;DHT22;24794;51.982;5.878;2023-08-30T01:07:27;15.60;99.90
39033;DHT22;24794;51.982;5.878;2023-08-30T01:08:28;15.60;99.90
39033;DHT22;24794;51.982;5.878;2023-08-30T01:09:28;15.60;99.90
39033;DHT22;24794;51.982;5.878;2023-08-30T01:10:38;15.50;99.90
39033;DHT22;24794;51.982;5.878;2023-08-30T01:13:08;15.50;99.90
39033;DHT22;24794;51.982;5.878;2023-08-30T01:14:15;15.50;99.90
39033;DHT22;24794;51.982;5.878;2023-08-30T01:15:19;15.50;99.90
39033;DHT22;24794;51.982;5.878;2023-08-30T01:16:21;15.40;99.90
39033;DHT22;24794;51.982;5.878;2023-08-30T01:17:24;15.40;99.90
39033;DHT22;24794;51.982;5.878;2023-08-30T01:18:27;15.40;99.90
39033;DHT22;24794;51.982;5.878;2023-08-30T01:20:41;15.40;99.90
39033;DHT22;24794;51.982;5.878;2023-08-30T01:21:56;15.40;99.90
39033;DHT22;24794;51.982;5.878;2023-08-30T01:23:17;15.40;99.90
39033;DHT22;24794;51.982;5.878;2023-08-30T01:24:32;15.40;99.90
39033;DHT22;24794;51.982;5.878;2023-08-30T01:25:53;15.30;99.90
39033;DHT22;24794;51.982;5.878;2023-08-30T01:27:11;15.30;99.90
39033;DHT22;24794;51.982;5.878;2023-08-30T01:28:13;15.30;99.90
39033;DHT22;24794;51.982;5.878;2023-08-30T01:29:16;15.30;99.90
39033;DHT22;24794;51.982;5.878;2023-08-30T01:30:19;15.30;99.90
39033;DHT22;24794;51.982;5.878;2023-08-30T01:31:23;15.30;99.90
39033;DHT22;24794;51.982;5.878;2023-08-30T01:32:24;15.30;99.90
39033;DHT22;24794;51.982;5.878;2023-08-30T01:33:26;15.30;99.90
39033;DHT22;24794;51.982;5.878;2023-08-30T01:34:30;15.30;99.90
39033;DHT22;24794;51.982;5.878;2023-08-30T01:35:32;15.30;99.90
39033;DHT22;24794;51.982;5.878;2023-08-30T01:36:36;15.30;99.90
39033;DHT22;24794;51.982;5.878;2023-08-30T01:37:37;15.20;99.90
39033;DHT22;24794;51.982;5.878;2023-08-30T01:38:39;15.20;99.90
39033;DHT22;24794;51.982;5.878;2023-08-30T01:39:40;15.20;99.90
39033;DHT22;24794;51.982;5.878;2023-08-30T01:40:43;15.20;99.90
39033;DHT22;24794;51.982;5.878;2023-08-30T01:41:44;15.20;99.90
39033;DHT22;24794;51.982;5.878;2023-08-30T01:42:46;15.10;99.90
39033;DHT22;24794;51.982;5.878;2023-08-30T01:43:49;15.10;99.90
39033;DHT22;24794;51.982;5.878;2023-08-30T01:44:51;15.10;99.90
39033;DHT22;24794;51.982;5.878;2023-08-30T01:45:55;15.10;99.90
39033;DHT22;24794;51.982;5.878;2023-08-30T01:46:57;15.10;99.90
39033;DHT22;24794;51.982;5.878;2023-08-30T01:47:58;15.10;99.90
39033;DHT22;24794;51.982;5.878;2023-08-30T01:49:00;15.10;99.90
39033;DHT22;24794;51.982;5.878;2023-08-30T01:50:02;15.10;99.90
39033;DHT22;24794;51.982;5.878;2023-08-30T01:51:04;15.10;99.90
39033;DHT22;24794;51.982;5.878;2023-08-30T01:52:06;15.10;99.90
39033;DHT22;24794;51.982;5.878;2023-08-30T01:53:08;15.10;99.90
39033;DHT22;24794;51.982;5.878;2023-08-30T01:54:09;15.10;99.90
39033;DHT22;24794;51.982;5.878;2023-08-30T01:55:14;15.10;99.90
39033;DHT22;24794;51.982;5.878;2023-08-30T01:56:15;15.10;99.90
39033;DHT22;24794;51.982;5.878;2023-08-30T01:57:15;15.10;99.90
39033;DHT22;24794;51.982;5.878;2023-08-30T01:58:16;15.10;99.90
39033;DHT22;24794;51.982;5.878;2023-08-30T01:59:16;15.10;99.90
39033;DHT22;24794;51.982;5.878;2023-08-30T02:00:17;15.10;99.90
39033;DHT22;24794;51.982;5.878;2023-08-30T02:01:17;15.10;99.90
39033;DHT22;24794;51.982;5.878;2023-08-30T02:02:18;15.10;99.90
39033;DHT22;24794;51.982;5.878;2023-08-30T02:03:18;15.10;99.90
39033;DHT22;24794;51.982;5.878;2023-08-30T02:04:19;15.20;99.90
39033;DHT22;24794;51.982;5.878;2023-08-30T02:05:19;15.20;99.90
39033;DHT22;24794;51.982;5.878;2023-08-30T02:06:24;15.20;99.90
39033;DHT22;24794;51.982;5.878;2023-08-30T02:07:55;15.10;99.90
39033;DHT22;24794;51.982;5.878;2023-08-30T02:09:19;15.20;99.90
39033;DHT22;24794;51.982;5.878;2023-08-30T02:10:41;15.20;99.90
39033;DHT22;24794;51.982;5.878;2023-08-30T02:11:44;15.10;99.90
39033;DHT22;24794;51.982;5.878;2023-08-30T02:12:51;15.20;99.90
39033;DHT22;24794;51.982;5.878;2023-08-30T02:13:56;15.10;99.90
39033;DHT22;24794;51.982;5.878;2023-08-30T02:14:57;15.20;99.90
39033;DHT22;24794;51.982;5.878;2023-08-30T02:16:00;15.20;99.90
39033;DHT22;24794;51.982;5.878;2023-08-30T02:17:01;15.20;99.90
39033;DHT22;24794;51.982;5.878;2023-08-30T02:18:05;15.20;99.90
39033;DHT22;24794;51.982;5.878;2023-08-30T02:19:06;15.20;99.90
39033;DHT22;24794;51.982;5.878;2023-08-30T02:20:08;15.20;99.90
39033;DHT22;24794;51.982;5.878;2023-08-30T02:21:08;15.20;99.90
39033;DHT22;24794;51.982;5.878;2023-08-30T02:22:09;15.20;99.90
39033;DHT22;24794;51.982;5.878;2023-08-30T02:23:10;15.30;99.90
39033;DHT22;24794;51.982;5.878;2023-08-30T02:24:10;15.20;99.90
39033;DHT22;24794;51.982;5.878;2023-08-30T02:25:11;15.30;99.90
39033;DHT22;24794;51.982;5.878;2023-08-30T02:26:11;15.20;99.90
39033;DHT22;24794;51.982;5.878;2023-08-30T02:27:12;15.20;99.90
39033;DHT22;24794;51.982;5.878;2023-08-30T02:28:12;15.20;99.90
39033;DHT22;24794;51.982;5.878;2023-08-30T02:29:13;15.20;99.90
39033;DHT22;24794;51.982;5.878;2023-08-30T02:30:13;15.30;99.90
39033;DHT22;24794;51.982;5.878;2023-08-30T02:31:14;15.30;99.90
39033;DHT22;24794;51.982;5.878;2023-08-30T02:32:14;15.30;99.90
39033;DHT22;24794;51.982;5.878;2023-08-30T02:33:20;15.30;99.90
39033;DHT22;24794;51.982;5.878;2023-08-30T02:34:21;15.30;99.90
39033;DHT22;24794;51.982;5.878;2023-08-30T02:35:22;15.30;99.90
39033;DHT22;24794;51.982;5.878;2023-08-30T02:36:22;15.40;99.90
39033;DHT22;24794;51.982;5.878;2023-08-30T02:37:23;15.30;99.90
39033;DHT22;24794;51.982;5.878;2023-08-30T02:38:24;15.30;99.90
39033;DHT22;24794;51.982;5.878;2023-08-30T02:39:25;15.40;99.90
39033;DHT22;24794;51.982;5.878;2023-08-30T02:40:25;15.40;99.90
39033;DHT22;24794;51.982;5.878;2023-08-30T02:41:25;15.40;99.90
39033;DHT22;24794;51.982;5.878;2023-08-30T02:42:26;15.40;99.90
39033;DHT22;24794;51.982;5.878;2023-08-30T02:43:28;15.40;99.90
39033;DHT22;24794;51.982;5.878;2023-08-30T02:44:28;15.40;99.90
39033;DHT22;24794;51.982;5.878;2023-08-30T02:45:29;15.40;99.90
39033;DHT22;24794;51.982;5.878;2023-08-30T02:46:29;15.50;99.90
39033;DHT22;24794;51.982;5.878;2023-08-30T02:47:30;15.50;99.90
39033;DHT22;24794;51.982;5.878;2023-08-30T02:48:32;15.50;99.90
39033;DHT22;24794;51.982;5.878;2023-08-30T02:49:32;15.50;99.90
39033;DHT22;24794;51.982;5.878;2023-08-30T02:50:33;15.50;99.90
39033;DHT22;24794;51.982;5.878;2023-08-30T02:51:34;15.50;99.90
39033;DHT22;24794;51.982;5.878;2023-08-30T02:52:34;15.50;99.90
39033;DHT22;24794;51.982;5.878;2023-08-30T02:53:35;15.50;99.90
39033;DHT22;24794;51.982;5.878;2023-08-30T02:54:35;15.50;99.90
39033;DHT22;24794;51.982;5.878;2023-08-30T02:55:36;15.50;99.90
39033;DHT22;24794;51.982;5.878;2023-08-30T02:56:36;15.60;99.90
39033;DHT22;24794;51.982;5.878;2023-08-30T02:57:37;15.50;99.90
39033;DHT22;24794;51.982;5.878;2023-08-30T02:58:37;15.50;99.90
39033;DHT22;24794;51.982;5.878;2023-08-30T02:59:38;15.50;99.90
39033;DHT22;24794;51.982;5.878;2023-08-30T03:00:38;15.50;99.90
39033;DHT22;24794;51.982;5.878;2023-08-30T03:01:39;15.50;99.90
39033;DHT22;24794;51.982;5.878;2023-08-30T03:02:39;15.50;99.90
39033;DHT22;24794;51.982;5.878;2023-08-30T03:03:40;15.50;99.90
39033;DHT22;24794;51.982;5.878;2023-08-30T03:04:40;15.50;99.90
39033;DHT22;24794;51.982;5.878;2023-08-30T03:05:41;15.50;99.90
39033;DHT22;24794;51.982;5.878;2023-08-30T03:06:41;15.50;99.90
39033;DHT22;24794;51.982;5.878;2023-08-30T03:07:42;15.50;99.90
39033;DHT22;24794;51.982;5.878;2023-08-30T03:08:42;15.50;99.90
39033;DHT22;24794;51.982;5.878;2023-08-30T03:09:43;15.60;99.90
39033;DHT22;24794;51.982;5.878;2023-08-30T03:10:43;15.60;99.90
39033;DHT22;24794;51.982;5.878;2023-08-30T03:11:44;15.50;99.90
39033;DHT22;24794;51.982;5.878;2023-08-30T03:12:44;15.50;99.90
39033;DHT22;24794;51.982;5.878;2023-08-30T03:13:45;15.50;99.90
39033;DHT22;24794;51.982;5.878;2023-08-30T03:14:46;15.50;99.90
39033;DHT22;24794;51.982;5.878;2023-08-30T03:15:47;15.50;99.90
39033;DHT22;24794;51.982;5.878;2023-08-30T03:16:47;15.50;99.90
39033;DHT22;24794;51.982;5.878;2023-08-30T03:17:48;15.50;99.90
39033;DHT22;24794;51.982;5.878;2023-08-30T03:18:49;15.40;99.90
39033;DHT22;24794;51.982;5.878;2023-08-30T03:19:52;15.40;99.90
39033;DHT22;24794;51.982;5.878;2023-08-30T03:21:00;15.40;99.90
39033;DHT22;24794;51.982;5.878;2023-08-30T03:22:02;15.40;99.90
39033;DHT22;24794;51.982;5.878;2023-08-30T03:23:03;15.30;99.90
39033;DHT22;24794;51.982;5.878;2023-08-30T03:24:04;15.30;99.90
39033;DHT22;24794;51.982;5.878;2023-08-30T03:25:05;15.30;99.90
39033;DHT22;24794;51.982;5.878;2023-08-30T03:26:13;15.30;99.90
39033;DHT22;24794;51.982;5.878;2023-08-30T03:27:13;15.20;99.90
39033;DHT22;24794;51.982;5.878;2023-08-30T03:28:14;15.20;99.90
39033;DHT22;24794;51.982;5.878;2023-08-30T03:29:14;15.20;99.90
39033;DHT22;24794;51.982;5.878;2023-08-30T03:30:15;15.20;99.90
39033;DHT22;24794;51.982;5.878;2023-08-30T03:31:17;15.20;99.90
39033;DHT22;24794;51.982;5.878;2023-08-30T03:32:18;15.10;99.90
39033;DHT22;24794;51.982;5.878;2023-08-30T03:33:18;15.10;99.90
39033;DHT22;24794;51.982;5.878;2023-08-30T03:34:19;15.20;99.90
39033;DHT22;24794;51.982;5.878;2023-08-30T03:35:19;15.10;99.90
39033;DHT22;24794;51.982;5.878;2023-08-30T03:36:22;15.10;99.90
39033;DHT22;24794;51.982;5.878;2023-08-30T03:37:22;15.10;99.90
39033;DHT22;24794;51.982;5.878;2023-08-30T03:38:23;15.10;99.90
39033;DHT22;24794;51.982;5.878;2023-08-30T03:39:23;15.10;99.90
39033;DHT22;24794;51.982;5.878;2023-08-30T03:40:24;15.10;99.90
39033;DHT22;24794;51.982;5.878;2023-08-30T03:41:25;15.10;99.90
39033;DHT22;24794;51.982;5.878;2023-08-30T03:42:26;15.10;99.90
39033;DHT22;24794;51.982;5.878;2023-08-30T03:43:26;15.10;99.90
39033;DHT22;24794;51.982;5.878;2023-08-30T03:44:27;15.10;99.90
39033;DHT22;24794;51.982;5.878;2023-08-30T03:45:27;15.10;99.90
39033;DHT22;24794;51.982;5.878;2023-08-30T03:46:27;15.10;99.90
39033;DHT22;24794;51.982;5.878;2023-08-30T03:47:28;15.10;99.90
39033;DHT22;24794;51.982;5.878;2023-08-30T03:48:30;15.00;99.90
39033;DHT22;24794;51.982;5.878;2023-08-30T03:49:31;15.00;99.90
39033;DHT22;24794;51.982;5.878;2023-08-30T03:50:31;15.00;99.90
39033;DHT22;24794;51.982;5.878;2023-08-30T03:51:32;15.00;99.90
39033;DHT22;24794;51.982;5.878;2023-08-30T03:52:32;15.10;99.90
39033;DHT22;24794;51.982;5.878;2023-08-30T03:53:33;15.00;99.90
39033;DHT22;24794;51.982;5.878;2023-08-30T03:54:33;15.00;99.90
39033;DHT22;24794;51.982;5.878;2023-08-30T03:55:34;15.00;99.90
39033;DHT22;24794;51.982;5.878;2023-08-30T03:56:34;15.00;99.90
39033;DHT22;24794;51.982;5.878;2023-08-30T03:57:35;15.00;99.90
39033;DHT22;24794;51.982;5.878;2023-08-30T03:58:35;15.00;99.90
39033;DHT22;24794;51.982;5.878;2023-08-30T03:59:38;15.00;99.90
39033;DHT22;24794;51.982;5.878;2023-08-30T04:00:39;15.00;99.90
39033;DHT22;24794;51.982;5.878;2023-08-30T04:01:39;15.00;99.90
39033;DHT22;24794;51.982;5.878;2023-08-30T04:02:40;15.00;99.90
39033;DHT22;24794;51.982;5.878;2023-08-30T04:03:41;15.00;99.90
39033;DHT22;24794;51.982;5.878;2023-08-30T04:04:41;15.00;99.90
39033;DHT22;24794;51.982;5.878;2023-08-30T04:05:42;15.00;99.90
39033;DHT22;24794;51.982;5.878;2023-08-30T04:06:43;15.10;99.90
39033;DHT22;24794;51.982;5.878;2023-08-30T04:07:43;15.10;99.90
39033;DHT22;24794;51.982;5.878;2023-08-30T04:08:43;15.10;99.90
39033;DHT22;24794;51.982;5.878;2023-08-30T04:09:44;15.10;99.90
39033;DHT22;24794;51.982;5.878;2023-08-30T04:10:44;15.10;99.90
39033;DHT22;24794;51.982;5.878;2023-08-30T04:11:47;15.10;99.90
39033;DHT22;24794;51.982;5.878;2023-08-30T04:12:48;15.00;99.90
39033;DHT22;24794;51.982;5.878;2023-08-30T04:13:49;15.00;99.90
39033;DHT22;24794;51.982;5.878;2023-08-30T04:14:49;15.00;99.90
39033;DHT22;24794;51.982;5.878;2023-08-30T04:15:51;15.00;99.90
39033;DHT22;24794;51.982;5.878;2023-08-30T04:16:51;14.90;99.90
39033;DHT22;24794;51.982;5.878;2023-08-30T04:17:52;15.00;99.90
39033;DHT22;24794;51.982;5.878;2023-08-30T04:18:54;15.00;99.90
39033;DHT22;24794;51.982;5.878;2023-08-30T04:19:54;15.00;99.90
39033;DHT22;24794;51.982;5.878;2023-08-30T04:20:57;14.90;99.90
39033;DHT22;24794;51.982;5.878;2023-08-30T04:21:58;14.90;99.90
39033;DHT22;24794;51.982;5.878;2023-08-30T04:22:59;15.00;99.90
39033;DHT22;24794;51.982;5.878;2023-08-30T04:24:01;15.00;99.90
39033;DHT22;24794;51.982;5.878;2023-08-30T04:25:04;15.00;99.90
39033;DHT22;24794;51.982;5.878;2023-08-30T04:26:04;14.90;99.90
39033;DHT22;24794;51.982;5.878;2023-08-30T04:27:05;14.90;99.90
39033;DHT22;24794;51.982;5.878;2023-08-30T04:28:05;14.90;99.90
39033;DHT22;24794;51.982;5.878;2023-08-30T04:29:06;14.90;99.90
39033;DHT22;24794;51.982;5.878;2023-08-30T04:30:07;14.90;99.90
39033;DHT22;24794;51.982;5.878;2023-08-30T04:31:07;14.90;99.90
39033;DHT22;24794;51.982;5.878;2023-08-30T04:32:08;14.80;99.90
39033;DHT22;24794;51.982;5.878;2023-08-30T04:33:08;14.80;99.90
39033;DHT22;24794;51.982;5.878;2023-08-30T04:34:09;14.80;99.90
39033;DHT22;24794;51.982;5.878;2023-08-30T04:35:09;14.80;99.90
39033;DHT22;24794;51.982;5.878;2023-08-30T04:36:10;14.80;99.90
39033;DHT22;24794;51.982;5.878;2023-08-30T04:37:11;14.80;99.90
39033;DHT22;24794;51.982;5.878;2023-08-30T04:38:12;14.80;99.90
39033;DHT22;24794;51.982;5.878;2023-08-30T04:39:12;14.80;99.90
39033;DHT22;24794;51.982;5.878;2023-08-30T04:40:14;14.80;99.90
39033;DHT22;24794;51.982;5.878;2023-08-30T04:41:15;14.80;99.90
39033;DHT22;24794;51.982;5.878;2023-08-30T04:42:15;14.70;99.90
39033;DHT22;24794;51.982;5.878;2023-08-30T04:43:16;14.70;99.90
39033;DHT22;24794;51.982;5.878;2023-08-30T04:44:16;14.70;99.90
39033;DHT22;24794;51.982;5.878;2023-08-30T04:45:17;14.70;99.90
39033;DHT22;24794;51.982;5.878;2023-08-30T04:46:18;14.70;99.90
39033;DHT22;24794;51.982;5.878;2023-08-30T04:47:18;14.70;99.90
39033;DHT22;24794;51.982;5.878;2023-08-30T04:48:19;14.70;99.90
39033;DHT22;24794;51.982;5.878;2023-08-30T04:49:20;14.60;99.90
39033;DHT22;24794;51.982;5.878;2023-08-30T04:50:20;14.60;99.90
39033;DHT22;24794;51.982;5.878;2023-08-30T04:51:21;14.60;99.90
39033;DHT22;24794;51.982;5.878;2023-08-30T04:52:21;14.60;99.90
39033;DHT22;24794;51.982;5.878;2023-08-30T04:53:22;14.60;99.90
39033;DHT22;24794;51.982;5.878;2023-08-30T04:54:22;14.60;99.90
39033;DHT22;24794;51.982;5.878;2023-08-30T04:55:28;14.60;99.90
39033;DHT22;24794;51.982;5.878;2023-08-30T04:56:29;14.60;99.90
39033;DHT22;24794;51.982;5.878;2023-08-30T04:57:29;14.60;99.90
39033;DHT22;24794;51.982;5.878;2023-08-30T04:58:30;14.60;99.90
39033;DHT22;24794;51.982;5.878;2023-08-30T04:59:30;14.60;99.90
39033;DHT22;24794;51.982;5.878;2023-08-30T05:00:31;14.60;99.90
39033;DHT22;24794;51.982;5.878;2023-08-30T05:01:31;14.60;99.90
39033;DHT22;24794;51.982;5.878;2023-08-30T05:02:32;14.60;99.90
39033;DHT22;24794;51.982;5.878;2023-08-30T05:03:33;14.60;99.90
39033;DHT22;24794;51.982;5.878;2023-08-30T05:04:33;14.60;99.90
39033;DHT22;24794;51.982;5.878;2023-08-30T05:05:34;14.60;99.90
39033;DHT22;24794;51.982;5.878;2023-08-30T05:06:35;14.60;99.90
39033;DHT22;24794;51.982;5.878;2023-08-30T05:07:35;14.60;99.90
39033;DHT22;24794;51.982;5.878;2023-08-30T05:08:36;14.70;99.90
39033;DHT22;24794;51.982;5.878;2023-08-30T05:09:37;14.70;99.90
39033;DHT22;24794;51.982;5.878;2023-08-30T05:10:38;14.70;99.90
39033;DHT22;24794;51.982;5.878;2023-08-30T05:11:40;14.70;99.90
39033;DHT22;24794;51.982;5.878;2023-08-30T05:12:40;14.70;99.90
39033;DHT22;24794;51.982;5.878;2023-08-30T05:13:42;14.70;99.90
39033;DHT22;24794;51.982;5.878;2023-08-30T05:14:43;14.60;99.90
39033;DHT22;24794;51.982;5.878;2023-08-30T05:15:43;14.60;99.90
39033;DHT22;24794;51.982;5.878;2023-08-30T05:16:44;14.70;99.90
39033;DHT22;24794;51.982;5.878;2023-08-30T05:17:44;14.70;99.90
39033;DHT22;24794;51.982;5.878;2023-08-30T05:18:45;14.70;99.90
39033;DHT22;24794;51.982;5.878;2023-08-30T05:19:48;14.70;99.90
39033;DHT22;24794;51.982;5.878;2023-08-30T05:20:48;14.70;99.90
39033;DHT22;24794;51.982;5.878;2023-08-30T05:21:49;14.70;99.90
39033;DHT22;24794;51.982;5.878;2023-08-30T05:22:55;14.70;99.90
39033;DHT22;24794;51.982;5.878;2023-08-30T05:23:55;14.70;99.90
39033;DHT22;24794;51.982;5.878;2023-08-30T05:24:56;14.70;99.90
39033;DHT22;24794;51.982;5.878;2023-08-30T05:25:56;14.70;99.90
39033;DHT22;24794;51.982;5.878;2023-08-30T05:26:57;14.70;99.90
39033;DHT22;24794;51.982;5.878;2023-08-30T05:27:57;14.70;99.90
39033;DHT22;24794;51.982;5.878;2023-08-30T05:28:58;14.80;99.90
39033;DHT22;24794;51.982;5.878;2023-08-30T05:29:58;14.70;99.90
39033;DHT22;24794;51.982;5.878;2023-08-30T05:30:59;14.80;99.90
39033;DHT22;24794;51.982;5.878;2023-08-30T05:31:59;14.80;99.90
39033;DHT22;24794;51.982;5.878;2023-08-30T05:33:00;14.80;99.90
39033;DHT22;24794;51.982;5.878;2023-08-30T05:34:00;14.80;99.90
39033;DHT22;24794;51.982;5.878;2023-08-30T05:35:01;14.70;99.90
39033;DHT22;24794;51.982;5.878;2023-08-30T05:36:01;14.80;99.90
39033;DHT22;24794;51.982;5.878;2023-08-30T05:37:02;14.70;99.90
39033;DHT22;24794;51.982;5.878;2023-08-30T05:38:03;14.80;99.90
39033;DHT22;24794;51.982;5.878;2023-08-30T05:39:03;14.80;99.90
39033;DHT22;24794;51.982;5.878;2023-08-30T05:40:05;14.80;99.90
39033;DHT22;24794;51.982;5.878;2023-08-30T05:41:05;14.80;99.90
39033;DHT22;24794;51.982;5.878;2023-08-30T05:42:06;14.80;99.90
39033;DHT22;24794;51.982;5.878;2023-08-30T05:43:06;14.80;99.90
39033;DHT22;24794;51.982;5.878;2023-08-30T05:44:07;14.80;99.90
39033;DHT22;24794;51.982;5.878;2023-08-30T05:45:08;14.80;99.90
39033;DHT22;24794;51.982;5.878;2023-08-30T05:46:08;14.80;99.90
39033;DHT22;24794;51.982;5.878;2023-08-30T05:47:14;14.80;99.90
39033;DHT22;24794;51.982;5.878;2023-08-30T05:48:17;14.90;99.90
39033;DHT22;24794;51.982;5.878;2023-08-30T05:49:17;14.80;99.90
39033;DHT22;24794;51.982;5.878;2023-08-30T05:50:18;14.90;99.90
39033;DHT22;24794;51.982;5.878;2023-08-30T05:51:18;14.90;99.90
39033;DHT22;24794;51.982;5.878;2023-08-30T05:52:21;14.90;99.90
39033;DHT22;24794;51.982;5.878;2023-08-30T05:53:21;14.90;99.90
39033;DHT22;24794;51.982;5.878;2023-08-30T05:54:22;14.90;99.90
39033;DHT22;24794;51.982;5.878;2023-08-30T05:55:22;15.00;99.90
39033;DHT22;24794;51.982;5.878;2023-08-30T05:56:23;15.00;99.90
39033;DHT22;24794;51.982;5.878;2023-08-30T05:57:23;15.00;99.90
39033;DHT22;24794;51.982;5.878;2023-08-30T05:58:25;15.00;99.90
39033;DHT22;24794;51.982;5.878;2023-08-30T05:59:26;15.00;99.90
39033;DHT22;24794;51.982;5.878;2023-08-30T06:00:28;15.10;99.90
39033;DHT22;24794;51.982;5.878;2023-08-30T06:01:28;15.10;99.90
39033;DHT22;24794;51.982;5.878;2023-08-30T06:02:29;15.10;99.90
39033;DHT22;24794;51.982;5.878;2023-08-30T06:03:29;15.10;99.90
39033;DHT22;24794;51.982;5.878;2023-08-30T06:04:30;15.20;99.90
39033;DHT22;24794;51.982;5.878;2023-08-30T06:05:30;15.20;99.90
39033;DHT22;24794;51.982;5.878;2023-08-30T06:06:31;15.20;99.90
39033;DHT22;24794;51.982;5.878;2023-08-30T06:07:32;15.30;99.90
39033;DHT22;24794;51.982;5.878;2023-08-30T06:08:32;15.30;99.90
39033;DHT22;24794;51.982;5.878;2023-08-30T06:09:33;15.30;99.90
39033;DHT22;24794;51.982;5.878;2023-08-30T06:10:33;15.30;99.90
39033;DHT22;24794;51.982;5.878;2023-08-30T06:11:34;15.40;99.90
39033;DHT22;24794;51.982;5.878;2023-08-30T06:12:34;15.40;99.90
39033;DHT22;24794;51.982;5.878;2023-08-30T06:13:35;15.40;99.90
39033;DHT22;24794;51.982;5.878;2023-08-30T06:14:35;15.40;99.90
39033;DHT22;24794;51.982;5.878;2023-08-30T06:15:36;15.50;99.90
39033;DHT22;24794;51.982;5.878;2023-08-30T06:16:38;15.60;99.90
39033;DHT22;24794;51.982;5.878;2023-08-30T06:17:38;15.50;99.90
39033;DHT22;24794;51.982;5.878;2023-08-30T06:18:39;15.60;99.90
39033;DHT22;24794;51.982;5.878;2023-08-30T06:19:40;15.60;99.90
39033;DHT22;24794;51.982;5.878;2023-08-30T06:20:40;15.70;99.90
39033;DHT22;24794;51.982;5.878;2023-08-30T06:21:42;15.70;99.90
39033;DHT22;24794;51.982;5.878;2023-08-30T06:22:42;15.70;99.90
39033;DHT22;24794;51.982;5.878;2023-08-30T06:23:43;15.70;99.90
39033;DHT22;24794;51.982;5.878;2023-08-30T06:24:43;15.80;99.90
39033;DHT22;24794;51.982;5.878;2023-08-30T06:25:44;15.80;99.90
39033;DHT22;24794;51.982;5.878;2023-08-30T06:26:44;15.80;99.90
39033;DHT22;24794;51.982;5.878;2023-08-30T06:27:56;15.80;99.90
39033;DHT22;24794;51.982;5.878;2023-08-30T06:28:57;15.80;99.90
39033;DHT22;24794;51.982;5.878;2023-08-30T06:29:58;15.80;99.90
39033;DHT22;24794;51.982;5.878;2023-08-30T06:30:58;15.80;99.90